sensor_id;sensor_type;location;lat;lon;timestamp;temperature;humidity
11965;DHT22;6042;41.326;19.826;2023-04-30T00:02:19;15.40;99.90
11965;DHT22;6042;41.326;19.826;2023-04-30T00:04:47;15.40;99.90
11965;DHT22;6042;41.326;19.826;2023-04-30T00:07:16;15.30;99.90
11965;DHT22;6042;41.326;19.826;2023-04-30T00:09:44;15.20;99.90
11965;DHT22;6042;41.326;19.826;2023-04-30T00:12:13;15.30;99.90
11965;DHT22;6042;41.326;19.826;2023-04-30T00:14:41;15.20;99.90
11965;DHT22;6042;41.326;19.826;2023-04-30T00:17:11;15.20;99.90
11965;DHT22;6042;41.326;19.826;2023-04-30T00:19:39;15.20;99.90
11965;DHT22;6042;41.326;19.826;2023-04-30T00:22:08;15.10;99.90
11965;DHT22;6042;41.326;19.826;2023-04-30T00:24:36;15.10;99.90
11965;DHT22;6042;41.326;19.826;2023-04-30T00:27:05;15.00;99.90
11965;DHT22;6042;41.326;19.826;2023-04-30T00:29:33;15.00;99.90
11965;DHT22;6042;41.326;19.826;2023-04-30T00:32:01;14.90;99.90
11965;DHT22;6042;41.326;19.826;2023-04-30T00:34:31;14.90;99.90
11965;DHT22;6042;41.326;19.826;2023-04-30T00:36:59;14.90;99.90
11965;DHT22;6042;41.326;19.826;2023-04-30T00:39:28;15.00;99.90
11965;DHT22;6042;41.326;19.826;2023-04-30T00:41:56;15.00;99.90
11965;DHT22;6042;41.326;19.826;2023-04-30T00:44:25;15.00;99.90
11965;DHT22;6042;41.326;19.826;2023-04-30T00:46:53;15.00;99.90
11965;DHT22;6042;41.326;19.826;2023-04-30T00:49:21;15.00;99.90
11965;DHT22;6042;41.326;19.826;2023-04-30T00:51:52;14.90;99.90
11965;DHT22;6042;41.326;19.826;2023-04-30T00:54:21;14.90;99.90
11965;DHT22;6042;41.326;19.826;2023-04-30T00:56:50;14.90;99.90
11965;DHT22;6042;41.326;19.826;2023-04-30T00:59:18;14.80;99.90
11965;DHT22;6042;41.326;19.826;2023-04-30T01:01:47;14.80;99.90
11965;DHT22;6042;41.326;19.826;2023-04-30T01:04:16;14.80;99.90
11965;DHT22;6042;41.326;19.826;2023-04-30T01:06:45;14.80;99.90
11965;DHT22;6042;41.326;19.826;2023-04-30T01:09:15;14.80;99.90
11965;DHT22;6042;41.326;19.826;2023-04-30T01:11:49;14.80;99.90
11965;DHT22;6042;41.326;19.826;2023-04-30T01:14:27;14.70;99.90
11965;DHT22;6042;41.326;19.826;2023-04-30T01:17:03;14.70;99.90
11965;DHT22;6042;41.326;19.826;2023-04-30T01:19:40;14.60;99.90
11965;DHT22;6042;41.326;19.826;2023-04-30T01:22:13;14.70;99.90
11965;DHT22;6042;41.326;19.826;2023-04-30T01:25:10;14.70;99.90
11965;DHT22;6042;41.326;19.826;2023-04-30T01:28:05;14.60;99.90
11965;DHT22;6042;41.326;19.826;2023-04-30T01:30:36;14.50;99.90
11965;DHT22;6042;41.326;19.826;2023-04-30T01:33:07;14.50;99.90
11965;DHT22;6042;41.326;19.826;2023-04-30T01:35:57;14.50;99.90
11965;DHT22;6042;41.326;19.826;2023-04-30T01:38:39;14.50;99.90
11965;DHT22;6042;41.326;19.826;2023-04-30T01:41:14;14.50;99.90
11965;DHT22;6042;41.326;19.826;2023-04-30T01:43:52;14.40;99.90
11965;DHT22;6042;41.326;19.826;2023-04-30T01:46:24;14.40;99.90
11965;DHT22;6042;41.326;19.826;2023-04-30T01:49:02;14.30;99.90
11965;DHT22;6042;41.326;19.826;2023-04-30T01:51:39;14.30;99.90
11965;DHT22;6042;41.326;19.826;2023-04-30T01:54:14;14.30;99.90
11965;DHT22;6042;41.326;19.826;2023-04-30T01:56:52;14.20;99.90
11965;DHT22;6042;41.326;19.826;2023-04-30T01:59:26;14.10;99.90
11965;DHT22;6042;41.326;19.826;2023-04-30T02:01:55;14.10;99.90
11965;DHT22;6042;41.326;19.826;2023-04-30T02:04:24;14.10;99.90
11965;DHT22;6042;41.326;19.826;2023-04-30T02:06:52;14.10;99.90
11965;DHT22;6042;41.326;19.826;2023-04-30T02:09:20;14.10;99.90
11965;DHT22;6042;41.326;19.826;2023-04-30T02:11:50;14.20;99.90
11965;DHT22;6042;41.326;19.826;2023-04-30T02:14:19;14.10;99.90
11965;DHT22;6042;41.326;19.826;2023-04-30T02:16:52;14.00;99.90
11965;DHT22;6042;41.326;19.826;2023-04-30T02:19:21;14.00;99.90
11965;DHT22;6042;41.326;19.826;2023-04-30T02:21:49;13.90;99.90
11965;DHT22;6042;41.326;19.826;2023-04-30T02:24:17;13.80;99.90
11965;DHT22;6042;41.326;19.826;2023-04-30T02:26:46;13.70;99.90
11965;DHT22;6042;41.326;19.826;2023-04-30T02:29:14;13.70;99.90
11965;DHT22;6042;41.326;19.826;2023-04-30T02:31:43;13.60;99.90
11965;DHT22;6042;41.326;19.826;2023-04-30T02:34:13;13.60;99.90
11965;DHT22;6042;41.326;19.826;2023-04-30T02:36:41;13.60;99.90
11965;DHT22;6042;41.326;19.826;2023-04-30T02:39:09;13.50;99.90
11965;DHT22;6042;41.326;19.826;2023-04-30T02:41:38;13.50;99.90
11965;DHT22;6042;41.326;19.826;2023-04-30T02:44:06;13.70;99.90
11965;DHT22;6042;41.326;19.826;2023-04-30T02:46:35;13.70;99.90
11965;DHT22;6042;41.326;19.826;2023-04-30T02:49:03;13.70;99.90
11965;DHT22;6042;41.326;19.826;2023-04-30T02:51:33;13.70;99.90
11965;DHT22;6042;41.326;19.826;2023-04-30T02:54:02;13.70;99.90
11965;DHT22;6042;41.326;19.826;2023-04-30T02:56:30;13.60;99.90
11965;DHT22;6042;41.326;19.826;2023-04-30T02:58:59;13.70;99.90
11965;DHT22;6042;41.326;19.826;2023-04-30T03:01:27;13.60;99.90
11965;DHT22;6042;41.326;19.826;2023-04-30T03:03:56;13.60;99.90
11965;DHT22;6042;41.326;19.826;2023-04-30T03:06:25;13.50;99.90
11965;DHT22;6042;41.326;19.826;2023-04-30T03:08:55;13.60;99.90
11965;DHT22;6042;41.326;19.826;2023-04-30T03:11:23;13.60;99.90
11965;DHT22;6042;41.326;19.826;2023-04-30T03:13:52;13.50;99.90
11965;DHT22;6042;41.326;19.826;2023-04-30T03:16:21;13.50;99.90
11965;DHT22;6042;41.326;19.826;2023-04-30T03:18:49;13.50;99.90
11965;DHT22;6042;41.326;19.826;2023-04-30T03:21:17;13.40;99.90
11965;DHT22;6042;41.326;19.826;2023-04-30T03:23:46;13.50;99.90
11965;DHT22;6042;41.326;19.826;2023-04-30T03:26:16;13.60;99.90
11965;DHT22;6042;41.326;19.826;2023-04-30T03:28:44;13.60;99.90
11965;DHT22;6042;41.326;19.826;2023-04-30T03:31:12;13.60;99.90
11965;DHT22;6042;41.326;19.826;2023-04-30T03:33:41;13.50;99.90
11965;DHT22;6042;41.326;19.826;2023-04-30T03:36:09;13.60;99.90
11965;DHT22;6042;41.326;19.826;2023-04-30T03:38:39;13.50;99.90
11965;DHT22;6042;41.326;19.826;2023-04-30T03:41:07;13.50;99.90
11965;DHT22;6042;41.326;19.826;2023-04-30T03:43:37;13.60;99.90
11965;DHT22;6042;41.326;19.826;2023-04-30T03:46:06;13.50;99.90
11965;DHT22;6042;41.326;19.826;2023-04-30T03:48:34;13.50;99.90
11965;DHT22;6042;41.326;19.826;2023-04-30T03:51:03;13.50;99.90
11965;DHT22;6042;41.326;19.826;2023-04-30T03:53:31;13.50;99.90
11965;DHT22;6042;41.326;19.826;2023-04-30T03:56:00;13.60;99.90
11965;DHT22;6042;41.326;19.826;2023-04-30T03:58:28;13.60;99.90
11965;DHT22;6042;41.326;19.826;2023-04-30T04:00:58;13.60;99.90
11965;DHT22;6042;41.326;19.826;2023-04-30T04:03:27;13.60;99.90
11965;DHT22;6042;41.326;19.826;2023-04-30T04:05:55;13.50;99.90
11965;DHT22;6042;41.326;19.826;2023-04-30T04:08:24;13.40;99.90
11965;DHT22;6042;41.326;19.826;2023-04-30T04:10:53;13.40;99.90
11965;DHT22;6042;41.326;19.826;2023-04-30T04:13:21;13.40;99.90
11965;DHT22;6042;41.326;19.826;2023-04-30T04:15:50;13.50;99.90
11965;DHT22;6042;41.326;19.826;2023-04-30T04:18:21;13.60;99.90
11965;DHT22;6042;41.326;19.826;2023-04-30T04:20:50;13.60;99.90
11965;DHT22;6042;41.326;19.826;2023-04-30T04:23:21;13.50;99.90
11965;DHT22;6042;41.326;19.826;2023-04-30T04:25:49;13.60;99.90
11965;DHT22;6042;41.326;19.826;2023-04-30T04:28:19;13.70;99.90
11965;DHT22;6042;41.326;19.826;2023-04-30T04:30:48;13.70;99.90
11965;DHT22;6042;41.326;19.826;2023-04-30T04:33:17;13.80;99.90
11965;DHT22;6042;41.326;19.826;2023-04-30T04:35:46;13.90;99.90
11965;DHT22;6042;41.326;19.826;2023-04-30T04:38:15;14.00;99.90
11965;DHT22;6042;41.326;19.826;2023-04-30T04:40:50;13.90;99.90
11965;DHT22;6042;41.326;19.826;2023-04-30T04:43:19;13.90;99.90
11965;DHT22;6042;41.326;19.826;2023-04-30T04:45:48;14.00;99.90
11965;DHT22;6042;41.326;19.826;2023-04-30T04:48:18;14.10;99.90
11965;DHT22;6042;41.326;19.826;2023-04-30T04:50:48;14.20;99.90
11965;DHT22;6042;41.326;19.826;2023-04-30T04:53:16;14.30;99.90
11965;DHT22;6042;41.326;19.826;2023-04-30T04:55:45;14.40;99.90
11965;DHT22;6042;41.326;19.826;2023-04-30T04:58:13;14.40;99.90
11965;DHT22;6042;41.326;19.826;2023-04-30T05:00:42;14.40;99.90
11965;DHT22;6042;41.326;19.826;2023-04-30T05:03:11;14.40;99.90
11965;DHT22;6042;41.326;19.826;2023-04-30T05:05:40;14.40;99.90
11965;DHT22;6042;41.326;19.826;2023-04-30T05:08:10;14.50;99.90
11965;DHT22;6042;41.326;19.826;2023-04-30T05:10:39;14.60;99.90
11965;DHT22;6042;41.326;19.826;2023-04-30T05:13:07;14.70;99.90
11965;DHT22;6042;41.326;19.826;2023-04-30T05:15:35;14.70;99.90
11965;DHT22;6042;41.326;19.826;2023-04-30T05:18:03;14.80;99.90
11965;DHT22;6042;41.326;19.826;2023-04-30T05:20:32;14.90;99.90
11965;DHT22;6042;41.326;19.826;2023-04-30T05:23:00;15.10;99.90
11965;DHT22;6042;41.326;19.826;2023-04-30T05:25:30;15.10;99.90
11965;DHT22;6042;41.326;19.826;2023-04-30T05:27:59;15.10;99.90
11965;DHT22;6042;41.326;19.826;2023-04-30T05:30:27;15.10;99.90
11965;DHT22;6042;41.326;19.826;2023-04-30T05:32:56;15.10;99.90
11965;DHT22;6042;41.326;19.826;2023-04-30T05:35:25;15.20;99.90
11965;DHT22;6042;41.326;19.826;2023-04-30T05:37:53;15.20;99.90
11965;DHT22;6042;41.326;19.826;2023-04-30T05:40:21;15.30;99.90
11965;DHT22;6042;41.326;19.826;2023-04-30T05:42:51;15.30;99.90
11965;DHT22;6042;41.326;19.826;2023-04-30T05:45:19;15.50;99.90
11965;DHT22;6042;41.326;19.826;2023-04-30T05:47:48;15.60;99.90
11965;DHT22;6042;41.326;19.826;2023-04-30T05:50:16;15.70;99.90
11965;DHT22;6042;41.326;19.826;2023-04-30T05:52:45;16.10;99.90
11965;DHT22;6042;41.326;19.826;2023-04-30T05:55:14;16.10;99.90
11965;DHT22;6042;41.326;19.826;2023-04-30T05:57:42;16.10;99.90
11965;DHT22;6042;41.326;19.826;2023-04-30T06:00:13;16.10;99.90
11965;DHT22;6042;41.326;19.826;2023-04-30T06:02:42;16.20;99.90
11965;DHT22;6042;41.326;19.826;2023-04-30T06:05:10;16.30;99.90
11965;DHT22;6042;41.326;19.826;2023-04-30T06:07:42;16.40;99.90
11965;DHT22;6042;41.326;19.826;2023-04-30T06:10:10;16.50;99.90
11965;DHT22;6042;41.326;19.826;2023-04-30T06:12:39;16.50;99.90
11965;DHT22;6042;41.326;19.826;2023-04-30T06:15:07;16.50;99.90
11965;DHT22;6042;41.326;19.826;2023-04-30T06:17:37;16.60;99.90
11965;DHT22;6042;41.326;19.826;2023-04-30T06:20:07;16.60;99.90
11965;DHT22;6042;41.326;19.826;2023-04-30T06:22:35;16.80;99.90
11965;DHT22;6042;41.326;19.826;2023-04-30T06:25:04;16.90;99.90
11965;DHT22;6042;41.326;19.826;2023-04-30T06:27:33;17.10;99.90
11965;DHT22;6042;41.326;19.826;2023-04-30T06:30:01;17.00;99.90
11965;DHT22;6042;41.326;19.826;2023-04-30T06:32:29;17.00;99.90
11965;DHT22;6042;41.326;19.826;2023-04-30T06:34:59;17.00;99.90
11965;DHT22;6042;41.326;19.826;2023-04-30T06:37:28;16.80;99.90
11965;DHT22;6042;41.326;19.826;2023-04-30T06:39:59;16.80;99.90
11965;DHT22;6042;41.326;19.826;2023-04-30T06:42:29;16.80;99.90
11965;DHT22;6042;41.326;19.826;2023-04-30T06:45:00;16.80;99.90
11965;DHT22;6042;41.326;19.826;2023-04-30T06:47:29;16.80;99.90
11965;DHT22;6042;41.326;19.826;2023-04-30T06:50:02;16.90;99.90
11965;DHT22;6042;41.326;19.826;2023-04-30T06:52:30;17.00;99.90
11965;DHT22;6042;41.326;19.826;2023-04-30T06:54:59;17.10;99.90
11965;DHT22;6042;41.326;19.826;2023-04-30T06:57:28;17.20;99.90
11965;DHT22;6042;41.326;19.826;2023-04-30T06:59:57;17.50;99.90
11965;DHT22;6042;41.326;19.826;2023-04-30T07:02:25;17.60;99.90
11965;DHT22;6042;41.326;19.826;2023-04-30T07:04:54;17.60;99.90
11965;DHT22;6042;41.326;19.826;2023-04-30T07:07:24;17.60;99.90
11965;DHT22;6042;41.326;19.826;2023-04-30T07:09:53;17.70;99.90
11965;DHT22;6042;41.326;19.826;2023-04-30T07:12:22;18.20;99.90
11965;DHT22;6042;41.326;19.826;2023-04-30T07:14:50;18.60;99.90
11965;DHT22;6042;41.326;19.826;2023-04-30T07:17:19;18.80;99.90
11965;DHT22;6042;41.326;19.826;2023-04-30T07:19:47;19.10;99.90
11965;DHT22;6042;41.326;19.826;2023-04-30T07:22:16;19.20;99.90
11965;DHT22;6042;41.326;19.826;2023-04-30T07:24:45;19.20;99.90
11965;DHT22;6042;41.326;19.826;2023-04-30T07:27:14;19.40;99.80
11965;DHT22;6042;41.326;19.826;2023-04-30T07:29:42;19.50;99.70
11965;DHT22;6042;41.326;19.826;2023-04-30T07:32:11;19.40;99.90
11965;DHT22;6042;41.326;19.826;2023-04-30T07:34:39;19.20;99.40
11965;DHT22;6042;41.326;19.826;2023-04-30T07:37:08;19.20;99.60
11965;DHT22;6042;41.326;19.826;2023-04-30T07:39:36;19.30;99.40
11965;DHT22;6042;41.326;19.826;2023-04-30T07:42:06;19.40;99.40
11965;DHT22;6042;41.326;19.826;2023-04-30T07:44:34;19.40;99.20
11965;DHT22;6042;41.326;19.826;2023-04-30T07:47:04;19.50;99.30
11965;DHT22;6042;41.326;19.826;2023-04-30T07:49:32;19.60;98.60
11965;DHT22;6042;41.326;19.826;2023-04-30T07:52:00;19.60;98.50
11965;DHT22;6042;41.326;19.826;2023-04-30T07:54:29;19.60;98.30
11965;DHT22;6042;41.326;19.826;2023-04-30T07:56:59;19.60;99.30
11965;DHT22;6042;41.326;19.826;2023-04-30T07:59:29;19.50;98.20
11965;DHT22;6042;41.326;19.826;2023-04-30T08:01:57;19.40;98.30
11965;DHT22;6042;41.326;19.826;2023-04-30T08:04:26;19.50;97.60
11965;DHT22;6042;41.326;19.826;2023-04-30T08:06:54;19.60;98.50
11965;DHT22;6042;41.326;19.826;2023-04-30T08:09:23;19.70;98.40
11965;DHT22;6042;41.326;19.826;2023-04-30T08:11:51;19.90;97.80
11965;DHT22;6042;41.326;19.826;2023-04-30T08:14:20;19.90;97.20
11965;DHT22;6042;41.326;19.826;2023-04-30T08:16:50;19.90;97.30
11965;DHT22;6042;41.326;19.826;2023-04-30T08:19:20;19.80;96.90
11965;DHT22;6042;41.326;19.826;2023-04-30T08:21:48;19.60;97.20
11965;DHT22;6042;41.326;19.826;2023-04-30T08:24:16;19.80;97.00
11965;DHT22;6042;41.326;19.826;2023-04-30T08:26:44;20.00;97.00
11965;DHT22;6042;41.326;19.826;2023-04-30T08:29:13;20.00;97.10
11965;DHT22;6042;41.326;19.826;2023-04-30T08:31:41;20.20;97.10
11965;DHT22;6042;41.326;19.826;2023-04-30T08:34:11;20.20;97.50
11965;DHT22;6042;41.326;19.826;2023-04-30T08:36:40;20.10;97.50
11965;DHT22;6042;41.326;19.826;2023-04-30T08:39:08;20.10;97.00
11965;DHT22;6042;41.326;19.826;2023-04-30T08:41:38;20.10;95.10
11965;DHT22;6042;41.326;19.826;2023-04-30T08:44:10;20.20;94.50
11965;DHT22;6042;41.326;19.826;2023-04-30T08:46:40;20.10;94.30
11965;DHT22;6042;41.326;19.826;2023-04-30T08:49:11;20.10;93.90
11965;DHT22;6042;41.326;19.826;2023-04-30T08:51:40;20.20;94.50
11965;DHT22;6042;41.326;19.826;2023-04-30T08:54:10;20.30;94.00
11965;DHT22;6042;41.326;19.826;2023-04-30T08:56:39;20.40;94.10
11965;DHT22;6042;41.326;19.826;2023-04-30T08:59:08;20.50;94.30
11965;DHT22;6042;41.326;19.826;2023-04-30T09:01:36;20.40;94.60
11965;DHT22;6042;41.326;19.826;2023-04-30T09:04:05;20.50;94.00
11965;DHT22;6042;41.326;19.826;2023-04-30T09:06:35;20.30;93.90
11965;DHT22;6042;41.326;19.826;2023-04-30T09:09:08;20.40;94.30
11965;DHT22;6042;41.326;19.826;2023-04-30T09:11:39;20.50;93.80
11965;DHT22;6042;41.326;19.826;2023-04-30T09:14:08;20.60;93.10
11965;DHT22;6042;41.326;19.826;2023-04-30T09:16:46;20.60;93.20
11965;DHT22;6042;41.326;19.826;2023-04-30T09:19:25;20.90;93.40
11965;DHT22;6042;41.326;19.826;2023-04-30T09:21:55;21.00;93.30
11965;DHT22;6042;41.326;19.826;2023-04-30T09:24:24;20.90;92.60
11965;DHT22;6042;41.326;19.826;2023-04-30T09:26:52;20.60;93.00
11965;DHT22;6042;41.326;19.826;2023-04-30T09:29:21;20.60;93.30
11965;DHT22;6042;41.326;19.826;2023-04-30T09:31:49;20.60;93.40
11965;DHT22;6042;41.326;19.826;2023-04-30T09:34:32;20.60;93.20
11965;DHT22;6042;41.326;19.826;2023-04-30T09:37:02;20.60;93.30
11965;DHT22;6042;41.326;19.826;2023-04-30T09:39:31;20.60;93.10
11965;DHT22;6042;41.326;19.826;2023-04-30T09:42:09;20.70;93.00
11965;DHT22;6042;41.326;19.826;2023-04-30T09:44:38;20.90;91.60
11965;DHT22;6042;41.326;19.826;2023-04-30T09:47:10;21.00;91.60
11965;DHT22;6042;41.326;19.826;2023-04-30T09:49:41;20.90;91.50
11965;DHT22;6042;41.326;19.826;2023-04-30T09:52:11;21.00;91.20
11965;DHT22;6042;41.326;19.826;2023-04-30T09:54:43;21.10;90.70
11965;DHT22;6042;41.326;19.826;2023-04-30T09:57:13;21.10;90.30
11965;DHT22;6042;41.326;19.826;2023-04-30T09:59:43;21.10;90.60
11965;DHT22;6042;41.326;19.826;2023-04-30T10:02:14;21.10;90.30
11965;DHT22;6042;41.326;19.826;2023-04-30T10:04:43;21.00;89.70
11965;DHT22;6042;41.326;19.826;2023-04-30T10:07:16;21.10;88.60
11965;DHT22;6042;41.326;19.826;2023-04-30T10:09:50;21.20;88.80
11965;DHT22;6042;41.326;19.826;2023-04-30T10:12:22;21.30;88.00
11965;DHT22;6042;41.326;19.826;2023-04-30T10:14:54;21.30;87.60
11965;DHT22;6042;41.326;19.826;2023-04-30T10:17:26;21.30;89.60
11965;DHT22;6042;41.326;19.826;2023-04-30T10:20:00;21.30;90.40
11965;DHT22;6042;41.326;19.826;2023-04-30T10:22:33;21.50;90.20
11965;DHT22;6042;41.326;19.826;2023-04-30T10:25:04;21.60;90.50
11965;DHT22;6042;41.326;19.826;2023-04-30T10:27:34;21.40;90.90
11965;DHT22;6042;41.326;19.826;2023-04-30T10:30:05;21.60;91.50
11965;DHT22;6042;41.326;19.826;2023-04-30T10:32:40;21.80;90.40
11965;DHT22;6042;41.326;19.826;2023-04-30T10:35:16;21.80;91.00
11965;DHT22;6042;41.326;19.826;2023-04-30T10:37:52;21.90;90.50
11965;DHT22;6042;41.326;19.826;2023-04-30T10:40:22;21.80;90.60
11965;DHT22;6042;41.326;19.826;2023-04-30T10:42:54;21.80;91.00
11965;DHT22;6042;41.326;19.826;2023-04-30T10:45:34;21.90;91.30
11965;DHT22;6042;41.326;19.826;2023-04-30T10:48:05;22.00;91.10
11965;DHT22;6042;41.326;19.826;2023-04-30T10:50:39;21.90;90.50
11965;DHT22;6042;41.326;19.826;2023-04-30T10:53:17;22.10;90.70
11965;DHT22;6042;41.326;19.826;2023-04-30T10:55:46;22.20;90.30
11965;DHT22;6042;41.326;19.826;2023-04-30T10:58:24;22.20;91.70
11965;DHT22;6042;41.326;19.826;2023-04-30T11:01:01;22.20;91.80
11965;DHT22;6042;41.326;19.826;2023-04-30T11:03:31;22.40;92.90
11965;DHT22;6042;41.326;19.826;2023-04-30T11:06:07;22.40;93.20
11965;DHT22;6042;41.326;19.826;2023-04-30T11:08:38;22.40;93.30
11965;DHT22;6042;41.326;19.826;2023-04-30T11:11:08;22.60;92.90
11965;DHT22;6042;41.326;19.826;2023-04-30T11:13:41;22.80;92.40
11965;DHT22;6042;41.326;19.826;2023-04-30T11:16:11;22.70;93.10
11965;DHT22;6042;41.326;19.826;2023-04-30T11:18:43;22.60;93.80
11965;DHT22;6042;41.326;19.826;2023-04-30T11:21:14;22.80;94.00
11965;DHT22;6042;41.326;19.826;2023-04-30T11:23:48;23.00;93.70
11965;DHT22;6042;41.326;19.826;2023-04-30T11:26:16;23.10;93.40
11965;DHT22;6042;41.326;19.826;2023-04-30T11:28:50;23.00;93.50
11965;DHT22;6042;41.326;19.826;2023-04-30T11:31:20;22.90;93.90
11965;DHT22;6042;41.326;19.826;2023-04-30T11:33:49;22.90;94.10
11965;DHT22;6042;41.326;19.826;2023-04-30T11:36:18;22.80;94.50
11965;DHT22;6042;41.326;19.826;2023-04-30T11:38:49;22.80;94.70
11965;DHT22;6042;41.326;19.826;2023-04-30T11:41:20;22.60;94.70
11965;DHT22;6042;41.326;19.826;2023-04-30T11:43:49;22.50;94.80
11965;DHT22;6042;41.326;19.826;2023-04-30T11:46:17;22.50;95.10
11965;DHT22;6042;41.326;19.826;2023-04-30T11:48:46;22.40;95.40
11965;DHT22;6042;41.326;19.826;2023-04-30T11:51:15;22.70;95.30
11965;DHT22;6042;41.326;19.826;2023-04-30T11:53:45;22.70;95.70
11965;DHT22;6042;41.326;19.826;2023-04-30T11:56:18;22.80;95.60
11965;DHT22;6042;41.326;19.826;2023-04-30T11:58:49;22.90;95.30
11965;DHT22;6042;41.326;19.826;2023-04-30T12:01:18;22.80;95.40
11965;DHT22;6042;41.326;19.826;2023-04-30T12:03:49;22.50;95.50
11965;DHT22;6042;41.326;19.826;2023-04-30T12:06:23;22.30;95.70
11965;DHT22;6042;41.326;19.826;2023-04-30T12:08:53;22.40;95.80
11965;DHT22;6042;41.326;19.826;2023-04-30T12:11:24;22.60;95.30
11965;DHT22;6042;41.326;19.826;2023-04-30T12:13:54;22.50;95.50
11965;DHT22;6042;41.326;19.826;2023-04-30T12:16:23;22.50;95.70
11965;DHT22;6042;41.326;19.826;2023-04-30T12:18:52;22.60;95.70
11965;DHT22;6042;41.326;19.826;2023-04-30T12:21:21;22.60;95.60
11965;DHT22;6042;41.326;19.826;2023-04-30T12:23:50;22.40;96.10
11965;DHT22;6042;41.326;19.826;2023-04-30T12:26:19;22.70;95.60
11965;DHT22;6042;41.326;19.826;2023-04-30T12:28:49;23.00;95.40
11965;DHT22;6042;41.326;19.826;2023-04-30T12:31:18;23.10;95.20
11965;DHT22;6042;41.326;19.826;2023-04-30T12:33:54;23.00;95.50
11965;DHT22;6042;41.326;19.826;2023-04-30T12:36:29;23.10;95.20
11965;DHT22;6042;41.326;19.826;2023-04-30T12:39:04;23.40;94.70
11965;DHT22;6042;41.326;19.826;2023-04-30T12:41:36;23.30;94.80
11965;DHT22;6042;41.326;19.826;2023-04-30T12:44:19;23.20;95.10
11965;DHT22;6042;41.326;19.826;2023-04-30T12:46:49;23.20;95.10
11965;DHT22;6042;41.326;19.826;2023-04-30T12:49:23;23.10;95.50
11965;DHT22;6042;41.326;19.826;2023-04-30T12:51:57;23.10;95.60
11965;DHT22;6042;41.326;19.826;2023-04-30T12:54:27;23.30;95.30
11965;DHT22;6042;41.326;19.826;2023-04-30T12:57:00;23.40;95.00
11965;DHT22;6042;41.326;19.826;2023-04-30T12:59:36;23.70;94.60
11965;DHT22;6042;41.326;19.826;2023-04-30T13:02:07;23.90;94.10
11965;DHT22;6042;41.326;19.826;2023-04-30T13:04:36;23.60;94.40
11965;DHT22;6042;41.326;19.826;2023-04-30T13:07:04;23.60;94.40
11965;DHT22;6042;41.326;19.826;2023-04-30T13:09:34;23.80;94.20
11965;DHT22;6042;41.326;19.826;2023-04-30T13:12:03;23.90;94.10
11965;DHT22;6042;41.326;19.826;2023-04-30T13:14:33;23.90;94.10
11965;DHT22;6042;41.326;19.826;2023-04-30T13:17:04;24.40;93.90
11965;DHT22;6042;41.326;19.826;2023-04-30T13:19:34;25.00;92.90
11965;DHT22;6042;41.326;19.826;2023-04-30T13:22:02;25.50;92.20
11965;DHT22;6042;41.326;19.826;2023-04-30T13:24:31;26.00;91.50
11965;DHT22;6042;41.326;19.826;2023-04-30T13:26:59;26.70;90.70
11965;DHT22;6042;41.326;19.826;2023-04-30T13:29:28;27.20;90.30
11965;DHT22;6042;41.326;19.826;2023-04-30T13:31:59;27.70;88.70
11965;DHT22;6042;41.326;19.826;2023-04-30T13:34:27;27.70;88.00
11965;DHT22;6042;41.326;19.826;2023-04-30T13:36:55;28.50;85.80
11965;DHT22;6042;41.326;19.826;2023-04-30T13:39:24;28.90;84.30
11965;DHT22;6042;41.326;19.826;2023-04-30T13:41:52;29.70;82.50
11965;DHT22;6042;41.326;19.826;2023-04-30T13:44:21;30.30;79.30
11965;DHT22;6042;41.326;19.826;2023-04-30T13:46:50;29.70;79.70
11965;DHT22;6042;41.326;19.826;2023-04-30T13:49:20;29.70;79.60
11965;DHT22;6042;41.326;19.826;2023-04-30T13:51:48;30.00;78.30
11965;DHT22;6042;41.326;19.826;2023-04-30T13:54:16;29.80;78.10
11965;DHT22;6042;41.326;19.826;2023-04-30T13:56:45;29.60;77.80
11965;DHT22;6042;41.326;19.826;2023-04-30T13:59:14;29.90;77.40
11965;DHT22;6042;41.326;19.826;2023-04-30T14:01:43;30.30;74.80
11965;DHT22;6042;41.326;19.826;2023-04-30T14:04:11;29.80;75.90
11965;DHT22;6042;41.326;19.826;2023-04-30T14:06:42;29.50;76.70
11965;DHT22;6042;41.326;19.826;2023-04-30T14:09:11;29.80;76.60
11965;DHT22;6042;41.326;19.826;2023-04-30T14:11:41;29.60;76.20
11965;DHT22;6042;41.326;19.826;2023-04-30T14:14:09;29.10;76.80
11965;DHT22;6042;41.326;19.826;2023-04-30T14:16:37;29.30;76.30
11965;DHT22;6042;41.326;19.826;2023-04-30T14:19:06;28.80;77.80
11965;DHT22;6042;41.326;19.826;2023-04-30T14:21:34;29.30;76.90
11965;DHT22;6042;41.326;19.826;2023-04-30T14:24:04;29.20;76.00
11965;DHT22;6042;41.326;19.826;2023-04-30T14:26:33;29.30;76.20
11965;DHT22;6042;41.326;19.826;2023-04-30T14:29:02;29.60;75.10
11965;DHT22;6042;41.326;19.826;2023-04-30T14:31:30;30.00;74.00
11965;DHT22;6042;41.326;19.826;2023-04-30T14:33:59;30.60;72.30
11965;DHT22;6042;41.326;19.826;2023-04-30T14:36:27;30.70;71.00
11965;DHT22;6042;41.326;19.826;2023-04-30T14:38:55;30.90;71.20
11965;DHT22;6042;41.326;19.826;2023-04-30T14:41:25;30.90;69.70
11965;DHT22;6042;41.326;19.826;2023-04-30T14:43:54;30.60;69.60
11965;DHT22;6042;41.326;19.826;2023-04-30T14:46:22;30.30;70.20
11965;DHT22;6042;41.326;19.826;2023-04-30T14:48:51;29.70;71.20
11965;DHT22;6042;41.326;19.826;2023-04-30T14:51:20;30.20;69.30
11965;DHT22;6042;41.326;19.826;2023-04-30T14:53:48;29.50;70.40
11965;DHT22;6042;41.326;19.826;2023-04-30T14:56:16;29.90;69.70
11965;DHT22;6042;41.326;19.826;2023-04-30T14:58:46;30.50;68.00
11965;DHT22;6042;41.326;19.826;2023-04-30T15:01:16;29.50;69.60
11965;DHT22;6042;41.326;19.826;2023-04-30T15:03:44;29.60;69.50
11965;DHT22;6042;41.326;19.826;2023-04-30T15:06:13;30.00;68.70
11965;DHT22;6042;41.326;19.826;2023-04-30T15:08:42;29.30;69.20
11965;DHT22;6042;41.326;19.826;2023-04-30T15:11:10;28.90;70.10
11965;DHT22;6042;41.326;19.826;2023-04-30T15:13:39;28.80;70.50
11965;DHT22;6042;41.326;19.826;2023-04-30T15:16:08;28.70;70.50
11965;DHT22;6042;41.326;19.826;2023-04-30T15:18:38;27.80;72.30
11965;DHT22;6042;41.326;19.826;2023-04-30T15:21:06;28.00;72.40
11965;DHT22;6042;41.326;19.826;2023-04-30T15:23:35;28.60;71.00
11965;DHT22;6042;41.326;19.826;2023-04-30T15:26:03;28.40;70.90
11965;DHT22;6042;41.326;19.826;2023-04-30T15:28:32;27.30;73.80
11965;DHT22;6042;41.326;19.826;2023-04-30T15:31:00;26.90;75.00
11965;DHT22;6042;41.326;19.826;2023-04-30T15:33:33;26.60;75.80
11965;DHT22;6042;41.326;19.826;2023-04-30T15:36:05;26.70;75.90
11965;DHT22;6042;41.326;19.826;2023-04-30T15:38:34;27.50;75.10
11965;DHT22;6042;41.326;19.826;2023-04-30T15:41:02;28.10;73.30
11965;DHT22;6042;41.326;19.826;2023-04-30T15:43:31;28.10;73.70
11965;DHT22;6042;41.326;19.826;2023-04-30T15:45:59;27.70;73.60
11965;DHT22;6042;41.326;19.826;2023-04-30T15:48:28;27.20;74.50